White Mountain Summit Weather observations

Data are for 10 minute period ending at time listed.
 Day   Time   Solar   Ave.   Ave.  Ave.  Vector    Max.    Baro.  
  of    of     Rad.   Air    Rel.  Wind   Wind     Wind   Press.  
Year   Day            Temp.  Hum.  Speed  Dir.     Gust           
2016   (PST)   W/m2    F      %     mph   deg.      mph     mb.   
-------------------------------------------------------------------
  37    4:30  999.0   999  999.0   999    999.0   999.0   999.0 
  37    4:40  999.0   999  999.0   999    999.0   999.0   999.0 
  37    4:50  999.0   999  999.0   999    999.0   999.0   999.0 
  37    5:00  999.0   999  999.0   999    999.0   999.0   999.0 
  37    5:10  999.0   999  999.0   999    999.0   999.0   999.0 
  37    5:20  999.0   999  999.0   999    999.0   999.0   999.0 
  37    5:30  999.0   999  999.0   999    999.0   999.0   999.0 
  37    5:40  999.0   999  999.0   999    999.0   999.0   999.0 
  37    5:50  999.0   999  999.0   999    999.0   999.0   999.0 
  37    6:00  999.0   999  999.0   999    999.0   999.0   999.0 
  37    6:10  999.0   999  999.0   999    999.0   999.0   999.0 
  37    6:20  999.0   999  999.0   999    999.0   999.0   999.0 
  37    6:30  999.0   999  999.0   999    999.0   999.0   999.0 
  37    6:40  999.0   999  999.0   999    999.0   999.0   999.0 
  37    6:50  999.0   999  999.0   999    999.0   999.0   999.0 
  37    7:00  999.0   999  999.0   999    999.0   999.0   999.0 
  37    7:10  999.0   999  999.0   999    999.0   999.0   999.0 
  37    7:20  999.0   999  999.0   999    999.0   999.0   999.0 
  37    7:30  999.0   999  999.0   999    999.0   999.0   999.0 
  37    7:40    1.0    12   87.5    21    267.4    23.5   604.4 
  37    7:50    0.0    13   87.0    22    267.4    35.3   604.5 
  37    8:00    0.0    13   86.8    30    267.4    40.0   604.4 
  37    8:10    0.0    13   86.8    28    267.5    35.3   604.4 
  37    8:20    0.0    14   86.6    19    267.5    28.2   604.6 
  37    8:30    0.0    14   86.2    21    267.5    25.9   604.6 
  37    8:40    0.0    15   86.0    29    267.5    40.0   604.4 
  37    8:50    0.0    15   86.0    31    267.6    42.4   604.5 
  37    9:00    0.0    14   85.6    30    267.6    37.7   604.4 
  37    9:10    0.0    14   85.3    30    267.5    37.7   604.4 
  37    9:20    0.0    15   85.2    28    267.6    33.0   604.5 
  37    9:30    0.0    16   85.3    19    267.6    33.0   604.8 
  37    9:40    0.0    17   85.0    18    267.6    23.5   605.1 
  37    9:50    0.0    18   85.3    20    267.6    28.2   605.1 
  37   10:00    0.0    18   85.8    23    267.6    28.2   605.2 
  37   10:10    0.0    18   85.9    26    267.6    30.6   605.1 
  37   10:20    0.0    18   85.7    25    267.6    28.2   605.2 
  37   10:30    0.0    18   85.6    24    267.6    28.2   605.3 
  37   10:40    0.0    19   85.7    24    267.6    33.0   605.3 
  37   10:50    0.0    19   85.7    26    267.6    33.0   605.3 
  37   11:00    0.0    20   85.9    19    267.6    28.2   605.3 
  37   11:10    0.0    20   86.1    20    267.6    25.9   605.3 
  37   11:20    0.0    20   86.3    31    267.6    40.0   605.0 
  37   11:30    0.0    20   86.1    37    267.6    44.7   604.9 
  37   11:40    0.0    21   86.0    30    267.6    42.4   604.8 
  37   11:50    0.0    21   86.0    35    267.6    42.4   604.7 
  37   12:00    0.0    21   86.2    37    267.5    47.1   604.6 
  37   12:10    0.0    21   86.0    34    267.5    40.0   604.5 
  37   12:20    0.0    21   86.0    34    267.5    37.7   604.5 
  37   12:30    0.0    21   86.3    34    267.5    40.0   604.4 
  37   12:40    0.0    22   86.2    26    267.5    33.0   604.4 
  37   12:50    0.0    23   86.1    27    267.5    30.6   604.3 
  37   13:00    0.0    24   86.4    27    267.5    33.0   604.2 
  37   13:10    0.0    24   87.2    28    267.5    33.0   604.2 
  37   13:20    0.0    24   87.6    28    267.5    33.0   604.2 
  37   13:30    0.0    24   87.4    22    267.5    25.9   604.1 
  37   13:40    0.0    25   87.2    22    267.5    25.9   604.1 
  37   13:50    0.0    25   87.4    23    267.5    28.2   604.0 
  37   14:00    0.0    26   87.6    26    267.5    33.0   604.0 
  37   14:10    0.0    25   87.7    23    267.5    25.9   604.0 
  37   14:20    0.0    26   87.6    25    267.5    30.6   604.0 
  37   14:30    0.0    26   87.7    23    267.5    28.2   604.0 
  37   14:40    0.0    25   87.5    23    275.9    28.2   604.0 
  37   14:50    0.0    26   87.2    22    282.6    30.6   604.0 
  37   15:00    0.0    26   87.3    22    286.3    28.2   604.1 
  37   15:10    0.0    27   87.7    18    279.9    21.2   604.1 
  37   15:20    0.0    27   87.7    19    281.1    23.5   604.1 
  37   15:30    0.0    27   87.9    22    280.7    25.9   604.1 
  37   15:40    0.0    26   88.1    24    284.9    28.2   604.1 
  37   15:50    0.0    26   88.8    23    289.9    30.6   604.2 
  37   16:00    0.0    25   89.2    25    281.9    30.6   604.1 
  37   16:10    0.0    24   89.6    24    288.2    28.2   604.2 
  37   16:20    0.0    23   89.6    26    275.1    30.6   604.0 
  37   16:30    0.0    23   88.6    21    282.1    25.9   604.2 
  37   16:40    0.0    23   89.1    21    284.9    25.9   604.2 
  37   16:50    0.0    22   89.7    24    282.0    28.2   604.1 
  37   17:00    0.0    22   89.6    21    276.2    28.2   604.2 
  37   17:10    0.0    21   89.5    17    280.6    21.2   604.3 
  37   17:20    0.0    21   89.7    19    290.5    23.5   604.3 
  37   17:30    0.0    21   90.0    18    294.3    23.5   604.3 
  37   17:40    0.0    21   90.1    18    282.0    21.2   604.3 
  37   17:50    0.0    20   89.8    20    286.5    23.5   604.5 
  37   18:00    0.0    20   89.9    21    289.3    25.9   604.5 
  37   18:10    0.0    20   89.8    23    284.6    28.2   604.5 
  37   18:20    0.0    19   89.4    22    279.8    25.9   604.6 
  37   18:30    0.0    19   89.0    22    279.6    28.2   604.7 
  37   18:40    0.0    19   89.1    22    292.3    28.2   604.8 
  37   18:50    0.0    19   89.2    25    283.0    30.6   604.7 
  37   19:00    0.0    19   88.9    24    278.4    30.6   604.8 
  37   19:10    0.0    19   88.7    23    280.2    28.2   604.8 
  37   19:20    0.0    19   88.8    25    277.8    30.6   604.8 
  37   19:30    0.0    20   88.8    24    282.0    33.0   604.8 
  37   19:40    0.0    20   89.0    24    280.6    30.6   604.7 
  37   19:50    0.0    20   88.9    23    275.7    28.2   604.9 
  37   20:00    0.0    19   88.9    23    272.3    28.2   605.0 
  37   20:10    0.0    20   89.2    24    283.2    30.6   604.9 
  37   20:20    0.0    20   89.6    25    279.4    30.6   604.9 
  37   20:30    0.0    20   89.7    25    281.5    33.0   605.0 
  37   20:40    0.0    21   89.9    26    277.8    35.3   605.0 
  37   20:50    0.0    21   90.0    28    280.8    33.0   605.0 
  37   21:00    0.0    21   90.1    28    284.6    37.7   605.1 
  37   21:10    0.0    21   90.2    28    296.2    37.7   605.1 
  37   21:20    0.0    21   90.3    28    284.8    37.7   605.1 
  37   21:30    0.0    21   90.3    29    288.2    37.7   605.1 
  37   21:40    0.0    21   90.2    29    283.7    40.0   605.1 
  37   21:50    0.0    21   90.2    28    288.5    35.3   605.1 
  37   22:00    0.0    21   90.2    28    292.7    40.0   605.1 
  37   22:10    0.0    21   90.2    26    284.3    33.0   605.1 
  37   22:20    0.0    21   90.2    27    288.9    33.0   605.1 
  37   22:30    0.0    21   90.2    29    293.7    37.7   605.1 
  37   22:40    0.0    21   90.1    28    289.6    35.3   605.1 
  37   22:50    0.0    21   90.1    28    294.9    37.7   605.2 
  37   23:00    0.0    21   90.1    26    287.2    33.0   605.2 
  37   23:10    0.0    21   90.2    24    293.9    33.0   605.3 
  37   23:20    0.0    21   90.3    24    296.8    33.0   605.3 
  37   23:30    0.0    21   90.3    24    288.1    30.6   605.4 
  37   23:40    0.0    21   90.3    24    305.4    30.6   605.4 
  37   23:50    0.0    21   90.6    22    313.3    30.6   605.5 
  38    0:00    0.0    21   90.7    22    322.1    30.6   605.4 
  38    0:10    0.0    21   90.7    24    325.8    30.6   605.4 
  38    0:20    0.0    21   90.8    21    326.7    28.2   605.4 
  38    0:30    0.0    21   90.9    22    326.4    28.2   605.4 
  38    0:40    0.0    21   90.9    23    335.7    30.6   605.4 
  38    0:50    0.0    21   90.8    25    344.2    30.6   605.3 
  38    1:00    0.0    21   90.8    24    341.6    28.2   605.3 
  38    1:10    0.0    21   90.8    26    352.8    30.6   605.3 
  38    1:20    0.0    21   90.8    26      0.4    30.6   605.3 
  38    1:30    0.0    21   90.7    27      0.0    30.6   605.3 
  38    1:40    0.0    21   90.7    25    359.7    28.2   605.3 
  38    1:50    0.0    21   90.7    24    348.1    28.2   605.3 
  38    2:00    0.0    21   90.7    23    353.0    28.2   605.3 
  38    2:10    0.0    21   90.7    21    346.2    25.9   605.4 
  38    2:20    0.0    21   90.7    21      1.4    25.9   605.3 
  38    2:30    0.0    21   90.7    19    354.5    23.5   605.3 
  38    2:40    0.0    21   90.7    15    352.0    23.5   605.4 
  38    2:50    0.0    21   90.6    19      8.7    23.5   605.3 
  38    3:00    0.0    21   90.7    17     12.1    21.2   605.3 
  38    3:10    0.0    20   90.9    15     15.0    18.8   605.3 
  38    3:20    0.0    20   91.0    15      1.3    18.8   605.3 
  38    3:30    0.0    20   91.0    15    331.5    18.8   605.3 
  38    3:40    0.0    20   91.0    18    333.9    21.2   605.3 
  38    3:50    0.0    20   91.0    18    327.2    21.2   605.4 
  38    4:00    0.0    20   91.0    19    331.1    23.5   605.3 
  38    4:10    0.0    20   91.0    21    343.9    23.5   605.4 
  38    4:20    0.0    20   91.0    21      7.9    25.9   605.4 

Return to White Mountain graphs page.


Western Regional Climate Center,wrcc@dri.edu